Time;durP1;ratioP1;P1;durP2;ratioP2;P2;SDS_P1;SDS_P2;PMS_P1;PMS_P2;Temp;Humidity;BMP_temperature;BMP_pressure;BME280_temperature;BME280_humidity;BME280_pressure;Samples;Min_cycle;Max_cycle;Signal;HPM_P1;HPM_P2
2023/07/09 00:02:13;;;;;;;2.70;0.85;;;24.60;1.00;;;;;;5136041;28;20438;-56
2023/07/09 00:04:40;;;;;;;1.90;0.80;;;24.60;1.00;;;;;;5135313;28;20433;-55
2023/07/09 00:07:18;;;;;;;1.20;0.80;;;24.60;1.00;;;;;;5132752;28;20426;-56
2023/07/09 00:09:45;;;;;;;1.77;0.73;;;24.60;1.00;;;;;;5135453;28;20422;-53
2023/07/09 00:12:14;;;;;;;1.50;0.85;;;24.60;1.00;;;;;;5135202;28;20888;-54
2023/07/09 00:14:42;;;;;;;1.23;0.80;;;24.50;1.00;;;;;;5135145;28;20422;-55
2023/07/09 00:17:12;;;;;;;1.60;0.80;;;24.50;1.00;;;;;;5133766;27;20418;-54
2023/07/09 00:19:39;;;;;;;1.10;0.88;;;24.40;1.00;;;;;;5132817;28;20449;-54
2023/07/09 00:22:16;;;;;;;1.90;0.80;;;24.30;1.00;;;;;;5133278;28;20429;-54
2023/07/09 00:24:45;;;;;;;1.70;0.80;;;24.30;1.00;;;;;;5136664;27;20437;-54
2023/07/09 00:27:13;;;;;;;1.20;0.80;;;24.20;1.00;;;;;;5137420;27;20430;-53
2023/07/09 00:29:40;;;;;;;1.20;0.80;;;24.10;1.00;;;;;;5137757;27;20434;-53
2023/07/09 00:32:13;;;;;;;1.43;0.90;;;24.10;1.00;;;;;;5137919;27;20414;-54
2023/07/09 00:34:40;;;;;;;1.20;0.90;;;24.00;1.00;;;;;;5139349;27;20894;-54
2023/07/09 00:37:12;;;;;;;1.48;0.90;;;24.00;1.00;;;;;;5139854;27;20426;-55
2023/07/09 00:39:41;;;;;;;1.20;0.80;;;24.00;1.00;;;;;;5139894;27;20876;-54
2023/07/09 00:42:14;;;;;;;1.25;0.80;;;24.00;1.00;;;;;;5139457;27;20430;-54
2023/07/09 00:44:43;;;;;;;1.58;0.90;;;24.00;1.00;;;;;;5139889;27;20521;-51
2023/07/09 00:47:27;;;;;;;1.95;0.80;;;23.90;1.00;;;;;;5139330;27;20414;-50
2023/07/09 00:50:04;;;;;;;2.00;0.90;;;24.00;1.00;;;;;;5139023;27;20422;-53
2023/07/09 00:52:38;;;;;;;1.83;0.88;;;24.00;1.00;;;;;;5139110;27;20459;-54
2023/07/09 00:55:09;;;;;;;1.10;0.80;;;24.00;1.00;;;;;;5139134;27;20414;-50
2023/07/09 00:57:41;;;;;;;2.90;0.90;;;24.00;1.00;;;;;;5139061;27;20422;-54
2023/07/09 01:00:17;;;;;;;0.93;0.70;;;23.90;1.00;;;;;;5139135;27;20489;-52
2023/07/09 01:02:48;;;;;;;1.70;0.90;;;23.90;1.00;;;;;;5138895;27;20482;-53
2023/07/09 01:05:19;;;;;;;0.98;0.75;;;23.90;1.00;;;;;;5138385;27;20442;-54
2023/07/09 01:07:48;;;;;;;1.20;0.80;;;23.90;1.00;;;;;;5139133;27;20848;-56
2023/07/09 01:10:15;;;;;;;2.28;0.90;;;24.00;1.00;;;;;;5139118;27;20856;-55
2023/07/09 01:12:45;;;;;;;1.90;0.80;;;24.00;1.00;;;;;;5139210;27;20429;-55
2023/07/09 01:15:15;;;;;;;1.20;0.85;;;23.90;1.00;;;;;;5138767;27;20434;-53
2023/07/09 01:17:44;;;;;;;1.05;0.70;;;23.90;1.00;;;;;;5139234;27;20434;-54
2023/07/09 01:20:18;;;;;;;1.70;0.80;;;23.80;1.00;;;;;;5138704;27;20850;-53
2023/07/09 01:22:48;;;;;;;2.20;0.70;;;23.80;1.00;;;;;;5138832;27;20783;-51
2023/07/09 01:25:16;;;;;;;1.00;0.80;;;23.80;1.00;;;;;;5138873;27;20430;-52
2023/07/09 01:27:47;;;;;;;2.50;0.70;;;23.80;1.00;;;;;;5138865;27;20427;-52
2023/07/09 01:30:22;;;;;;;1.10;0.70;;;23.70;1.00;;;;;;5138351;27;20872;-54
2023/07/09 01:32:49;;;;;;;0.90;0.80;;;23.70;1.00;;;;;;5138271;27;20427;-54
2023/07/09 01:35:18;;;;;;;2.08;0.70;;;23.70;1.00;;;;;;5136862;27;20494;-54
2023/07/09 01:37:47;;;;;;;1.20;0.80;;;23.70;1.00;;;;;;5138623;27;20410;-53
2023/07/09 01:40:17;;;;;;;1.50;0.90;;;23.70;1.00;;;;;;5138667;27;20426;-52
2023/07/09 01:42:44;;;;;;;2.40;0.80;;;23.70;1.00;;;;;;5138231;27;20423;-53
2023/07/09 01:45:12;;;;;;;1.10;0.70;;;23.70;1.00;;;;;;5137625;27;20430;-54
2023/07/09 01:47:40;;;;;;;1.40;0.80;;;23.60;1.00;;;;;;5138057;27;20512;-54
2023/07/09 01:50:09;;;;;;;1.40;0.70;;;23.60;1.00;;;;;;5138377;27;20410;-53
2023/07/09 01:52:39;;;;;;;1.77;0.80;;;23.60;1.00;;;;;;5136296;27;20418;-54
2023/07/09 01:55:10;;;;;;;1.20;0.70;;;23.60;1.00;;;;;;5138370;27;20417;-54
2023/07/09 01:57:37;;;;;;;1.10;0.63;;;23.60;1.00;;;;;;5138219;27;20426;-54
2023/07/09 02:00:10;;;;;;;1.45;0.80;;;23.60;1.00;;;;;;5137816;27;20425;-52
2023/07/09 02:02:38;;;;;;;1.40;0.80;;;23.60;1.00;;;;;;5137589;27;20885;-54
2023/07/09 02:05:06;;;;;;;1.17;0.80;;;23.70;1.00;;;;;;5137552;27;20427;-51
2023/07/09 02:07:33;;;;;;;1.30;0.70;;;23.70;1.00;;;;;;5137950;27;20788;-53
2023/07/09 02:10:00;;;;;;;1.10;0.70;;;23.60;1.00;;;;;;5137183;27;20895;-53
2023/07/09 02:12:29;;;;;;;1.50;0.80;;;23.60;1.00;;;;;;5136876;27;20611;-54
2023/07/09 02:14:56;;;;;;;1.43;0.80;;;23.50;1.00;;;;;;5137526;27;20422;-55
2023/07/09 02:17:23;;;;;;;1.42;0.90;;;23.50;1.00;;;;;;5137467;27;20429;-52
2023/07/09 02:19:50;;;;;;;1.10;0.70;;;23.50;1.00;;;;;;5137715;27;20418;-51
2023/07/09 02:22:19;;;;;;;1.43;0.90;;;23.50;1.00;;;;;;5137356;27;20405;-55
2023/07/09 02:24:46;;;;;;;1.30;0.70;;;23.40;1.00;;;;;;5137737;27;20435;-55
2023/07/09 02:27:16;;;;;;;1.70;0.70;;;23.40;1.00;;;;;;5137764;27;20434;-54
2023/07/09 02:29:45;;;;;;;1.30;0.70;;;23.30;1.00;;;;;;5137507;27;20422;-55
2023/07/09 02:32:18;;;;;;;1.60;0.80;;;23.30;1.00;;;;;;5136925;27;20427;-54
2023/07/09 02:34:48;;;;;;;1.40;0.77;;;23.30;1.00;;;;;;5137250;27;20829;-52
2023/07/09 02:37:16;;;;;;;1.58;0.68;;;23.30;1.00;;;;;;5137747;27;20721;-55
2023/07/09 02:39:44;;;;;;;1.08;0.70;;;23.30;1.00;;;;;;5137170;27;20423;-56
2023/07/09 02:42:12;;;;;;;1.83;0.70;;;23.30;1.00;;;;;;5136775;27;20570;-54
2023/07/09 02:44:40;;;;;;;1.75;0.90;;;23.30;1.00;;;;;;5135887;27;20488;-53
2023/07/09 02:47:09;;;;;;;1.13;0.80;;;23.40;1.00;;;;;;5135336;27;20422;-54
2023/07/09 02:49:37;;;;;;;1.23;0.75;;;23.40;1.00;;;;;;5135501;27;20418;-54
2023/07/09 02:52:05;;;;;;;1.60;0.80;;;23.30;1.00;;;;;;5134786;27;20436;-54
2023/07/09 02:54:32;;;;;;;1.83;0.70;;;23.30;1.00;;;;;;5135979;27;20426;-55
2023/07/09 02:56:59;;;;;;;1.45;0.70;;;23.30;1.00;;;;;;5135943;27;20418;-52
2023/07/09 02:59:29;;;;;;;1.75;0.80;;;23.30;1.00;;;;;;5135031;27;20748;-53
2023/07/09 03:01:56;;;;;;;1.30;0.90;;;23.20;1.00;;;;;;5135934;27;20427;-51
2023/07/09 03:04:25;;;;;;;1.63;0.80;;;23.20;1.00;;;;;;5136815;27;20427;-53
2023/07/09 03:06:54;;;;;;;1.00;0.70;;;23.10;8.50;;;;;;5136752;27;20422;-54
2023/07/09 03:09:21;;;;;;;1.00;0.75;;;23.10;22.70;;;;;;5136850;27;20814;-52
2023/07/09 03:11:48;;;;;;;2.00;0.95;;;23.10;25.30;;;;;;5136784;27;20498;-55
2023/07/09 03:14:16;;;;;;;1.20;0.80;;;23.10;41.60;;;;;;5136193;27;20426;-54
2023/07/09 03:16:43;;;;;;;1.38;0.80;;;23.10;28.60;;;;;;5136685;27;20414;-55
2023/07/09 03:19:10;;;;;;;2.40;0.93;;;23.00;92.50;;;;;;5136390;27;20440;-52
2023/07/09 03:21:39;;;;;;;2.10;0.80;;;22.90;92.00;;;;;;5136618;27;20429;-52
2023/07/09 03:24:08;;;;;;;1.60;0.80;;;22.90;99.90;;;;;;5135979;27;20430;-53
2023/07/09 03:26:35;;;;;;;2.10;0.70;;;23.00;93.20;;;;;;5135848;27;20517;-53
2023/07/09 03:29:02;;;;;;;1.50;0.90;;;23.00;91.40;;;;;;5136437;27;20506;-55
2023/07/09 03:31:29;;;;;;;1.00;0.80;;;23.00;92.60;;;;;;5135287;27;20438;-54
2023/07/09 03:33:56;;;;;;;1.60;0.80;;;23.00;99.90;;;;;;5136341;27;20418;-55
2023/07/09 03:36:23;;;;;;;1.10;0.80;;;22.90;99.90;;;;;;5136071;27;20707;-54
2023/07/09 03:38:52;;;;;;;1.75;0.80;;;23.00;99.90;;;;;;5136279;27;20429;-51
2023/07/09 03:41:19;;;;;;;1.60;0.90;;;23.00;99.90;;;;;;5136121;27;20426;-53
2023/07/09 03:43:46;;;;;;;1.52;0.80;;;22.90;99.90;;;;;;5135695;27;20422;-53
2023/07/09 03:46:13;;;;;;;1.60;0.80;;;22.80;99.90;;;;;;5136093;27;20429;-52
2023/07/09 03:48:41;;;;;;;1.40;0.80;;;22.80;99.90;;;;;;5136353;27;20465;-54
2023/07/09 03:51:08;;;;;;;1.30;0.73;;;22.80;99.90;;;;;;5136053;27;20431;-54
2023/07/09 03:53:35;;;;;;;1.88;0.90;;;22.80;99.90;;;;;;5135589;27;20422;-51
2023/07/09 03:56:03;;;;;;;1.42;0.90;;;22.80;99.90;;;;;;5135629;27;20779;-52
2023/07/09 03:58:30;;;;;;;1.30;0.80;;;22.80;99.90;;;;;;5135278;27;20841;-50
2023/07/09 04:00:58;;;;;;;1.40;0.80;;;22.80;99.90;;;;;;5135959;27;20433;-51
2023/07/09 04:03:25;;;;;;;1.10;0.90;;;22.90;99.90;;;;;;5136097;27;20446;-53
2023/07/09 04:05:52;;;;;;;1.80;0.90;;;22.90;99.90;;;;;;5136013;28;20844;-54
2023/07/09 04:08:20;;;;;;;1.70;0.90;;;22.90;99.90;;;;;;5135527;27;20426;-54
2023/07/09 04:10:47;;;;;;;1.40;0.90;;;23.00;99.90;;;;;;5135688;28;20411;-55
2023/07/09 04:13:15;;;;;;;2.30;0.90;;;23.10;94.00;;;;;;5135941;28;20724;-55
2023/07/09 04:15:42;;;;;;;1.20;0.80;;;23.10;99.90;;;;;;5135703;28;20422;-54
2023/07/09 04:18:09;;;;;;;1.20;0.80;;;23.10;99.90;;;;;;5135620;28;20422;-55
2023/07/09 04:20:36;;;;;;;1.50;0.80;;;23.00;90.10;;;;;;5135522;28;20440;-55
2023/07/09 04:23:04;;;;;;;2.20;0.90;;;22.90;99.90;;;;;;5135730;27;20471;-52
2023/07/09 04:25:31;;;;;;;2.50;0.90;;;22.90;99.90;;;;;;5135499;28;20426;-54
2023/07/09 04:27:59;;;;;;;1.90;0.88;;;23.00;99.90;;;;;;5135743;28;20426;-51
2023/07/09 04:30:27;;;;;;;1.30;0.80;;;22.90;99.90;;;;;;5135598;28;20433;-53
2023/07/09 04:32:54;;;;;;;1.23;0.80;;;22.90;99.90;;;;;;5135968;28;20429;-54
2023/07/09 04:35:21;;;;;;;2.00;0.85;;;23.00;99.90;;;;;;5135691;28;20914;-52
2023/07/09 04:37:48;;;;;;;1.67;1.00;;;23.10;99.90;;;;;;5135560;28;20415;-52
2023/07/09 04:40:15;;;;;;;1.30;0.80;;;23.00;99.90;;;;;;5135337;28;20418;-53
2023/07/09 04:42:43;;;;;;;1.73;0.80;;;23.10;99.90;;;;;;5135607;28;20430;-53
2023/07/09 04:45:12;;;;;;;1.52;0.90;;;23.10;99.90;;;;;;5135583;28;20441;-51
2023/07/09 04:47:40;;;;;;;1.77;0.90;;;23.10;99.90;;;;;;5135575;28;20830;-55
2023/07/09 04:50:10;;;;;;;1.10;0.80;;;23.20;99.90;;;;;;5135165;28;20497;-52
2023/07/09 04:52:37;;;;;;;4.60;0.90;;;23.10;99.90;;;;;;5135172;28;20429;-55
2023/07/09 04:55:05;;;;;;;1.80;0.82;;;23.10;99.90;;;;;;5135695;28;20422;-52
2023/07/09 04:57:32;;;;;;;2.28;0.80;;;23.10;99.90;;;;;;5135373;28;20752;-54
2023/07/09 04:59:59;;;;;;;1.30;0.80;;;23.20;99.90;;;;;;5135015;28;20776;-51
2023/07/09 05:02:27;;;;;;;1.20;0.90;;;23.20;99.90;;;;;;5134915;28;20414;-54
2023/07/09 05:04:55;;;;;;;1.50;1.10;;;23.20;99.90;;;;;;5135519;28;20513;-54
2023/07/09 05:07:22;;;;;;;1.80;0.80;;;23.30;99.90;;;;;;5135894;28;20450;-51
2023/07/09 05:09:50;;;;;;;1.40;0.80;;;23.20;99.90;;;;;;5136697;27;20426;-54
2023/07/09 05:12:17;;;;;;;1.50;0.90;;;23.30;99.90;;;;;;5138208;27;20414;-53
2023/07/09 05:14:44;;;;;;;1.10;0.80;;;23.30;99.50;;;;;;5139089;27;20475;-53
2023/07/09 05:17:11;;;;;;;1.80;0.90;;;23.30;99.90;;;;;;5139050;27;20430;-53
2023/07/09 05:19:39;;;;;;;1.90;0.90;;;23.20;99.90;;;;;;5138847;27;20482;-53
2023/07/09 05:22:08;;;;;;;1.48;0.80;;;23.20;99.90;;;;;;5138952;27;20850;-54
2023/07/09 05:24:36;;;;;;;1.90;0.90;;;23.20;99.90;;;;;;5138705;27;20518;-55
2023/07/09 05:27:03;;;;;;;1.70;0.90;;;23.20;99.90;;;;;;5138201;27;20422;-52
2023/07/09 05:29:30;;;;;;;1.20;0.90;;;23.20;99.90;;;;;;5138428;27;20521;-51
2023/07/09 05:31:57;;;;;;;1.30;0.90;;;23.20;99.90;;;;;;5138152;27;20410;-51
2023/07/09 05:34:25;;;;;;;1.55;0.90;;;23.20;99.90;;;;;;5137792;27;20856;-56
2023/07/09 05:36:52;;;;;;;2.40;1.20;;;23.20;99.90;;;;;;5137609;27;20424;-55
2023/07/09 05:39:20;;;;;;;1.55;0.90;;;23.20;99.90;;;;;;5138344;27;20919;-53
2023/07/09 05:41:47;;;;;;;1.33;0.93;;;23.30;99.90;;;;;;5136122;27;20419;-53
2023/07/09 05:44:14;;;;;;;1.80;1.00;;;23.30;99.90;;;;;;5136885;27;20429;-54
2023/07/09 05:46:41;;;;;;;1.90;1.00;;;23.30;99.90;;;;;;5136614;27;20427;-54
2023/07/09 05:49:08;;;;;;;1.50;0.90;;;23.40;99.90;;;;;;5137203;27;20753;-51
2023/07/09 05:51:35;;;;;;;2.10;1.00;;;23.50;99.90;;;;;;5136633;27;20433;-55
2023/07/09 05:54:03;;;;;;;1.83;1.10;;;23.50;99.90;;;;;;5136561;27;20919;-52
2023/07/09 05:56:31;;;;;;;1.30;0.90;;;23.60;99.90;;;;;;5137853;27;20421;-54
2023/07/09 05:58:58;;;;;;;1.63;0.97;;;23.60;99.90;;;;;;5138234;27;20414;-53
2023/07/09 06:01:26;;;;;;;1.50;0.90;;;23.80;99.90;;;;;;5137281;27;20426;-56
2023/07/09 06:03:54;;;;;;;2.00;1.00;;;23.80;99.90;;;;;;5137948;27;20564;-53
2023/07/09 06:06:21;;;;;;;1.90;0.90;;;23.90;99.90;;;;;;5138137;27;20477;-51
2023/07/09 06:08:50;;;;;;;1.20;0.90;;;24.00;99.90;;;;;;5137544;27;20430;-52
2023/07/09 06:11:18;;;;;;;2.10;1.00;;;24.10;99.90;;;;;;5136396;27;20483;-52
2023/07/09 06:13:47;;;;;;;1.40;0.90;;;24.20;99.90;;;;;;5136838;27;20886;-54
2023/07/09 06:16:15;;;;;;;1.20;0.90;;;24.30;99.90;;;;;;5138016;27;20885;-53
2023/07/09 06:18:42;;;;;;;1.60;0.90;;;24.40;99.90;;;;;;5137931;27;20422;-53
2023/07/09 06:21:11;;;;;;;1.40;0.80;;;24.50;99.50;;;;;;5137176;27;20422;-57
2023/07/09 06:23:38;;;;;;;1.23;0.90;;;24.60;63.20;;;;;;5137605;27;20422;-55
2023/07/09 06:26:05;;;;;;;1.27;0.88;;;24.70;39.10;;;;;;5137432;27;20426;-51
2023/07/09 06:28:33;;;;;;;1.23;0.80;;;24.80;20.60;;;;;;5137677;27;20427;-55
2023/07/09 06:31:01;;;;;;;1.38;0.90;;;25.00;1.00;;;;;;5137993;27;20423;-54
2023/07/09 06:33:29;;;;;;;1.38;0.90;;;25.00;1.00;;;;;;5137478;27;20445;-56
2023/07/09 06:35:58;;;;;;;1.85;0.90;;;25.10;1.00;;;;;;5137116;27;20418;-55
2023/07/09 06:38:25;;;;;;;1.40;0.90;;;25.10;1.00;;;;;;5137139;27;20865;-57
2023/07/09 06:40:52;;;;;;;1.50;1.00;;;25.20;1.00;;;;;;5137145;27;20426;-57
2023/07/09 06:43:19;;;;;;;1.50;0.88;;;25.30;1.00;;;;;;5137223;27;20421;-56
2023/07/09 06:45:51;;;;;;;1.50;1.20;;;25.50;1.00;;;;;;5137196;27;20442;-53
2023/07/09 06:48:19;;;;;;;1.95;1.00;;;25.70;1.00;;;;;;5137024;27;20426;-55
2023/07/09 06:50:47;;;;;;;2.30;0.90;;;25.70;1.00;;;;;;5136684;27;20525;-51
2023/07/09 06:53:14;;;;;;;2.00;0.90;;;25.90;1.00;;;;;;5136674;27;20422;-56
2023/07/09 06:55:41;;;;;;;1.50;0.90;;;26.10;1.00;;;;;;5136726;27;20419;-54
2023/07/09 06:58:08;;;;;;;1.60;0.80;;;26.30;1.00;;;;;;5136969;27;20422;-53
2023/07/09 07:00:36;;;;;;;1.60;0.90;;;26.40;1.00;;;;;;5136675;27;20841;-54
2023/07/09 07:03:03;;;;;;;2.00;1.08;;;26.50;1.00;;;;;;5136492;27;20430;-54
2023/07/09 07:05:32;;;;;;;2.78;0.90;;;26.60;1.00;;;;;;5135174;27;21560;-54
2023/07/09 07:08:00;;;;;;;2.28;1.00;;;26.80;1.00;;;;;;5134998;27;20417;-52
2023/07/09 07:10:27;;;;;;;1.50;1.00;;;26.80;1.00;;;;;;5135426;27;20410;-53
2023/07/09 07:12:54;;;;;;;1.67;0.90;;;26.80;1.00;;;;;;5135040;27;20422;-54
2023/07/09 07:15:21;;;;;;;1.35;1.00;;;26.90;1.00;;;;;;5134827;27;20458;-55
2023/07/09 07:17:48;;;;;;;1.70;0.80;;;27.00;1.00;;;;;;5135592;27;20425;-52
2023/07/09 07:20:19;;;;;;;1.30;1.00;;;27.10;1.00;;;;;;5135241;27;20426;-55
2023/07/09 07:22:47;;;;;;;1.85;1.20;;;27.20;1.00;;;;;;5135686;27;20429;-53
2023/07/09 07:25:15;;;;;;;1.30;1.00;;;27.20;1.00;;;;;;5135116;27;20422;-56
2023/07/09 07:27:42;;;;;;;1.48;1.00;;;27.30;1.00;;;;;;5135260;27;20445;-55
2023/07/09 07:30:10;;;;;;;1.30;1.00;;;27.40;1.00;;;;;;5136185;27;20850;-52
2023/07/09 07:32:39;;;;;;;1.20;0.90;;;27.40;1.00;;;;;;5135014;27;20442;-55
2023/07/09 07:35:07;;;;;;;2.60;1.08;;;27.50;1.00;;;;;;5134501;27;20462;-56
2023/07/09 07:37:34;;;;;;;1.30;1.00;;;27.60;1.00;;;;;;5133185;27;20467;-54
2023/07/09 07:40:04;;;;;;;1.10;0.90;;;27.70;1.00;;;;;;5134218;27;20467;-51
2023/07/09 07:42:31;;;;;;;1.55;1.00;;;27.70;1.00;;;;;;5132940;27;20430;-54
2023/07/09 07:44:58;;;;;;;1.80;0.98;;;27.90;1.00;;;;;;5116686;27;20432;-55
2023/07/09 07:47:27;;;;;;;1.70;1.20;;;28.00;1.00;;;;;;5113898;28;20484;-54
2023/07/09 07:49:54;;;;;;;1.60;1.00;;;28.10;1.00;;;;;;5113713;28;20507;-52
2023/07/09 07:52:22;;;;;;;3.90;1.10;;;28.20;1.00;;;;;;5113989;28;20419;-55
2023/07/09 07:54:49;;;;;;;1.80;0.90;;;28.30;1.00;;;;;;5111787;28;20432;-55
2023/07/09 07:57:17;;;;;;;3.20;1.00;;;28.20;1.00;;;;;;5112679;28;20424;-53
2023/07/09 07:59:46;;;;;;;2.65;1.00;;;28.30;1.00;;;;;;5113954;28;20427;-53
2023/07/09 08:02:14;;;;;;;1.35;0.98;;;28.30;1.00;;;;;;5113677;28;20556;-55
2023/07/09 08:04:42;;;;;;;2.00;1.00;;;28.40;1.00;;;;;;5115008;28;20415;-54
2023/07/09 08:07:09;;;;;;;1.53;0.90;;;28.50;1.00;;;;;;5114916;28;20432;-55
2023/07/09 08:09:36;;;;;;;2.30;1.00;;;28.60;1.00;;;;;;5114854;28;20504;-56
2023/07/09 08:12:09;;;;;;;1.80;1.00;;;28.70;1.00;;;;;;5114643;28;20432;-56
2023/07/09 08:14:38;;;;;;;1.70;1.00;;;28.80;1.00;;;;;;5114185;28;20435;-56
2023/07/09 08:17:06;;;;;;;1.20;0.90;;;29.00;1.00;;;;;;5113950;28;20843;-56
2023/07/09 08:19:33;;;;;;;1.67;0.90;;;29.10;1.00;;;;;;5112676;28;20413;-56
2023/07/09 08:22:00;;;;;;;1.37;0.90;;;29.10;1.00;;;;;;5113056;28;20740;-56
2023/07/09 08:24:27;;;;;;;2.30;1.10;;;29.20;1.00;;;;;;5113455;28;20428;-57
2023/07/09 08:26:56;;;;;;;1.67;1.00;;;29.00;1.00;;;;;;5114213;28;20855;-55
2023/07/09 08:29:23;;;;;;;1.67;0.90;;;29.00;1.00;;;;;;5113276;28;20732;-56
2023/07/09 08:31:52;;;;;;;2.17;1.00;;;29.00;1.00;;;;;;5113338;27;20416;-57
2023/07/09 08:34:19;;;;;;;2.10;1.00;;;29.10;1.00;;;;;;5112893;28;20478;-57
2023/07/09 08:36:46;;;;;;;2.67;1.10;;;29.30;1.00;;;;;;5111137;28;20827;-57
2023/07/09 08:39:15;;;;;;;1.40;0.90;;;29.40;1.00;;;;;;5110920;28;20425;-56
2023/07/09 08:41:48;;;;;;;1.80;1.00;;;29.50;1.00;;;;;;5112348;28;20491;-56
2023/07/09 08:44:32;;;;;;;1.95;0.90;;;29.60;1.00;;;;;;5113328;28;20477;-57
2023/07/09 08:47:12;;;;;;;1.40;1.00;;;29.70;1.00;;;;;;5117599;28;20731;-56
2023/07/09 08:49:45;;;;;;;1.40;0.90;;;29.80;1.00;;;;;;5118130;28;20408;-56
2023/07/09 08:52:17;;;;;;;1.10;0.90;;;29.80;1.00;;;;;;5116944;28;20428;-55
2023/07/09 08:54:48;;;;;;;1.48;0.90;;;30.00;1.00;;;;;;5117940;28;20439;-57
2023/07/09 08:57:23;;;;;;;1.20;0.82;;;30.10;1.00;;;;;;5118286;28;20768;-55
2023/07/09 08:59:53;;;;;;;2.40;0.90;;;30.30;1.00;;;;;;5118083;28;20424;-58
2023/07/09 09:02:32;;;;;;;1.40;0.90;;;30.40;1.00;;;;;;5116462;28;20432;-57
2023/07/09 09:04:59;;;;;;;1.92;1.00;;;30.50;1.00;;;;;;5117267;27;20420;-57
2023/07/09 09:07:41;;;;;;;1.50;0.95;;;30.60;1.00;;;;;;5117913;28;20504;-57
2023/07/09 09:10:14;;;;;;;1.40;1.10;;;30.80;1.00;;;;;;5115382;28;20915;-56
2023/07/09 09:12:52;;;;;;;1.30;1.00;;;31.00;1.00;;;;;;5115093;28;20785;-57
2023/07/09 09:15:21;;;;;;;2.00;1.00;;;31.20;1.00;;;;;;5114575;28;20432;-58
2023/07/09 09:17:54;;;;;;;1.52;1.00;;;31.20;1.00;;;;;;5114210;28;20409;-57
2023/07/09 09:20:22;;;;;;;1.40;1.10;;;31.40;1.00;;;;;;5115364;28;20424;-56
2023/07/09 09:22:55;;;;;;;1.23;1.00;;;31.60;1.00;;;;;;5115121;28;20507;-56
2023/07/09 09:25:28;;;;;;;1.92;1.00;;;31.80;1.00;;;;;;5116032;28;20419;-56
2023/07/09 09:27:55;;;;;;;1.30;1.00;;;31.80;1.00;;;;;;5115726;28;20437;-57
2023/07/09 09:30:24;;;;;;;1.63;0.90;;;31.70;1.00;;;;;;5115592;28;20428;-55
2023/07/09 09:32:56;;;;;;;1.30;0.90;;;31.50;1.00;;;;;;5116168;28;20430;-56
2023/07/09 09:35:28;;;;;;;1.40;0.90;;;31.60;1.00;;;;;;5116875;28;20428;-56
2023/07/09 09:37:57;;;;;;;1.17;0.90;;;31.80;1.00;;;;;;5117785;28;20704;-56
2023/07/09 09:40:26;;;;;;;1.13;0.90;;;32.00;1.00;;;;;;5117323;28;20469;-57
2023/07/09 09:42:55;;;;;;;1.80;0.90;;;32.10;1.00;;;;;;5116573;28;20870;-57
2023/07/09 09:45:27;;;;;;;1.57;0.90;;;32.30;1.00;;;;;;5116550;28;20431;-57
2023/07/09 09:48:00;;;;;;;1.38;1.10;;;32.50;1.00;;;;;;5115905;28;20715;-57
2023/07/09 09:50:32;;;;;;;1.42;0.82;;;32.70;1.00;;;;;;5116292;28;20428;-60
2023/07/09 09:53:01;;;;;;;1.60;0.80;;;32.80;1.00;;;;;;5116588;27;20424;-56
2023/07/09 09:55:32;;;;;;;1.10;0.90;;;32.80;1.00;;;;;;5115742;28;20456;-56
2023/07/09 09:58:00;;;;;;;1.48;0.88;;;32.90;1.00;;;;;;5116871;28;20427;-56
2023/07/09 10:00:29;;;;;;;1.50;0.80;;;33.00;1.00;;;;;;5117202;28;20428;-56
2023/07/09 10:03:02;;;;;;;1.70;0.70;;;33.00;1.00;;;;;;5117043;28;20460;-57
2023/07/09 10:05:35;;;;;;;1.20;0.70;;;33.20;1.00;;;;;;5117019;28;20428;-57
2023/07/09 10:08:10;;;;;;;0.90;0.60;;;33.10;1.00;;;;;;5117567;28;20432;-57
2023/07/09 10:10:38;;;;;;;1.77;0.70;;;32.90;1.00;;;;;;5117007;28;20718;-58
2023/07/09 10:13:15;;;;;;;0.90;0.63;;;33.10;1.00;;;;;;5115787;28;20847;-56
2023/07/09 10:15:48;;;;;;;1.60;0.60;;;33.10;1.00;;;;;;5116013;28;20432;-57
2023/07/09 10:18:30;;;;;;;0.90;0.60;;;33.00;1.00;;;;;;5115237;28;20770;-57
2023/07/09 10:21:06;;;;;;;1.70;0.70;;;33.00;1.00;;;;;;5115640;28;20447;-57
2023/07/09 10:23:39;;;;;;;0.90;0.60;;;33.20;1.00;;;;;;5114255;28;20865;-57
2023/07/09 10:26:13;;;;;;;1.90;0.70;;;33.20;1.00;;;;;;5113489;28;20420;-57
2023/07/09 10:29:07;;;;;;;2.58;0.70;;;33.20;1.00;;;;;;5115536;28;20843;-57
2023/07/09 10:31:47;;;;;;;1.50;0.70;;;33.40;1.00;;;;;;5115201;28;20765;-57
2023/07/09 10:34:26;;;;;;;0.90;0.60;;;33.30;1.00;;;;;;5114671;28;20858;-57
2023/07/09 10:37:13;;;;;;;1.40;0.70;;;33.40;1.00;;;;;;5115760;28;20424;-58
2023/07/09 10:39:45;;;;;;;1.20;0.70;;;34.00;1.00;;;;;;5114943;28;20781;-57
2023/07/09 10:42:22;;;;;;;1.10;0.70;;;34.50;1.00;;;;;;5115647;28;20464;-57
2023/07/09 10:44:57;;;;;;;0.90;0.60;;;34.90;1.00;;;;;;5115605;28;20753;-57
2023/07/09 10:47:31;;;;;;;0.95;0.70;;;35.30;1.00;;;;;;5114785;27;20538;-57
2023/07/09 10:50:01;;;;;;;1.40;0.70;;;35.30;1.00;;;;;;5114437;28;20416;-59
2023/07/09 10:52:33;;;;;;;1.40;0.70;;;35.10;1.00;;;;;;5114380;28;20646;-58
2023/07/09 10:55:04;;;;;;;1.33;0.60;;;35.10;1.00;;;;;;5114929;28;20424;-57
2023/07/09 10:57:39;;;;;;;1.25;0.70;;;35.20;1.00;;;;;;5114905;28;20736;-58
2023/07/09 11:00:15;;;;;;;1.25;0.70;;;35.10;1.00;;;;;;5115517;28;20432;-58
2023/07/09 11:02:44;;;;;;;1.00;0.60;;;35.40;1.00;;;;;;5115697;28;20420;-57
2023/07/09 11:05:13;;;;;;;0.90;0.60;;;35.60;1.00;;;;;;5115624;28;20915;-58
2023/07/09 11:07:45;;;;;;;1.20;0.70;;;35.80;1.00;;;;;;5115993;28;20428;-58
2023/07/09 11:10:23;;;;;;;1.48;0.60;;;36.00;1.00;;;;;;5116171;28;20507;-57
2023/07/09 11:12:57;;;;;;;0.90;0.60;;;36.20;1.00;;;;;;5115618;28;20431;-58
2023/07/09 11:15:30;;;;;;;1.40;0.70;;;36.30;1.00;;;;;;5115416;28;20446;-58
2023/07/09 11:17:59;;;;;;;1.20;0.70;;;36.10;1.00;;;;;;5115029;28;20424;-58
2023/07/09 11:20:33;;;;;;;1.40;0.60;;;36.00;1.00;;;;;;5114267;28;20777;-57
2023/07/09 11:23:05;;;;;;;1.50;0.70;;;36.10;1.00;;;;;;5113960;28;20797;-57
2023/07/09 11:25:42;;;;;;;1.63;0.70;;;36.20;1.00;;;;;;5113918;28;20480;-58
2023/07/09 11:28:10;;;;;;;1.52;0.60;;;36.50;1.00;;;;;;5114139;28;20533;-59
2023/07/09 11:30:48;;;;;;;2.20;0.70;;;36.10;1.00;;;;;;5113865;28;20455;-57
2023/07/09 11:33:19;;;;;;;2.20;0.70;;;36.50;1.00;;;;;;5113129;28;20431;-57
2023/07/09 11:35:50;;;;;;;2.20;0.70;;;36.60;1.00;;;;;;5112993;28;20435;-58
2023/07/09 11:38:20;;;;;;;1.60;0.70;;;36.70;1.00;;;;;;5113258;28;20455;-57
2023/07/09 11:40:49;;;;;;;1.70;0.70;;;37.00;1.00;;;;;;5113533;28;20479;-58
2023/07/09 11:43:28;;;;;;;1.63;0.70;;;37.20;99.90;;;;;;5113570;27;20732;-58
2023/07/09 11:45:58;;;;;;;1.95;1.00;;;37.10;99.90;;;;;;5113314;28;20824;-58
2023/07/09 11:48:27;;;;;;;2.70;0.80;;;37.10;99.90;;;;;;5112863;28;20871;-58
2023/07/09 11:50:59;;;;;;;1.60;0.70;;;37.40;99.90;;;;;;5114104;28;20432;-58
2023/07/09 11:53:36;;;;;;;1.77;0.70;;;37.30;99.90;;;;;;5114032;28;20432;-58
2023/07/09 11:56:03;;;;;;;1.40;0.70;;;37.40;99.90;;;;;;5114896;28;20483;-58
2023/07/09 11:58:30;;;;;;;3.50;0.80;;;37.30;99.90;;;;;;5115409;28;20419;-58
2023/07/09 12:00:59;;;;;;;2.00;0.80;;;37.00;99.90;;;;;;5113765;28;20428;-58
2023/07/09 12:03:29;;;;;;;1.50;0.70;;;36.20;99.90;;;;;;5114612;28;20420;-58
2023/07/09 12:06:03;;;;;;;2.23;0.70;;;36.70;99.90;;;;;;5114682;28;20434;-58
2023/07/09 12:08:34;;;;;;;1.30;0.80;;;36.90;99.90;;;;;;5115452;28;20439;-58
2023/07/09 12:11:01;;;;;;;1.35;0.80;;;36.80;99.90;;;;;;5114742;28;20530;-58
2023/07/09 12:13:29;;;;;;;1.80;0.80;;;36.60;99.90;;;;;;5114986;28;20420;-59
2023/07/09 12:15:56;;;;;;;1.40;0.73;;;36.70;99.90;;;;;;5114448;28;20424;-58
2023/07/09 12:18:23;;;;;;;1.30;0.70;;;36.90;99.90;;;;;;5113828;28;20899;-58
2023/07/09 12:20:53;;;;;;;1.70;0.70;;;37.30;99.90;;;;;;5117277;27;20427;-58
2023/07/09 12:23:27;;;;;;;1.65;0.70;;;37.30;99.90;;;;;;5137564;27;20422;-58
2023/07/09 12:25:55;;;;;;;1.70;0.70;;;37.50;99.90;;;;;;5138907;27;20414;-58
2023/07/09 12:28:23;;;;;;;1.13;0.70;;;37.70;99.90;;;;;;5139547;27;20422;-58
2023/07/09 12:30:52;;;;;;;1.40;0.80;;;38.10;99.90;;;;;;5139598;27;20475;-60
2023/07/09 12:33:20;;;;;;;1.58;0.77;;;38.60;99.90;;;;;;5138888;27;20426;-57
2023/07/09 12:35:48;;;;;;;2.20;0.90;;;38.80;99.90;;;;;;5138416;27;20445;-58
2023/07/09 12:38:21;;;;;;;1.05;0.70;;;38.70;99.90;;;;;;5138774;27;20418;-58
2023/07/09 12:40:51;;;;;;;2.00;0.70;;;38.00;99.90;;;;;;5137475;27;20776;-58
2023/07/09 12:43:24;;;;;;;0.90;0.60;;;37.90;99.90;;;;;;5137385;27;20779;-59
2023/07/09 12:45:51;;;;;;;1.27;0.70;;;37.90;99.90;;;;;;5137362;27;20426;-56
2023/07/09 12:48:22;;;;;;;2.05;0.70;;;38.00;99.90;;;;;;5137529;27;20426;-56
2023/07/09 12:50:51;;;;;;;1.50;0.70;;;37.90;99.90;;;;;;5138924;27;20445;-60
2023/07/09 12:53:20;;;;;;;1.13;0.60;;;37.90;99.90;;;;;;5137912;27;20767;-57
2023/07/09 12:55:50;;;;;;;1.40;0.70;;;38.00;99.90;;;;;;5137594;27;20410;-58
2023/07/09 12:58:20;;;;;;;1.60;0.70;;;38.30;99.90;;;;;;5138473;27;20418;-58
2023/07/09 13:00:51;;;;;;;1.50;0.70;;;37.80;99.90;;;;;;5137460;27;20422;-58
2023/07/09 13:03:21;;;;;;;1.10;0.70;;;37.70;99.90;;;;;;5138006;27;20423;-57
2023/07/09 13:05:58;;;;;;;1.10;0.70;;;37.20;99.90;;;;;;5137867;27;20866;-57